sensor_id;sensor_type;location;lat;lon;timestamp;pressure;altitude;pressure_sealevel;temperature;humidity
59588;BME280;45412;54.472;18.464;2022-09-20T00:01:49;99398.59;;;9.54;99.44
59588;BME280;45412;54.472;18.464;2022-09-20T00:04:37;99396.76;;;9.53;99.42
59588;BME280;45412;54.472;18.464;2022-09-20T00:07:25;99392.39;;;9.50;99.41
59588;BME280;45412;54.472;18.464;2022-09-20T00:10:13;99393.21;;;9.47;99.49
59588;BME280;45412;54.472;18.464;2022-09-20T00:13:02;99392.13;;;9.45;98.99
59588;BME280;45412;54.472;18.464;2022-09-20T00:15:53;99390.71;;;9.43;98.90
59588;BME280;45412;54.472;18.464;2022-09-20T00:18:41;99392.29;;;9.39;99.11
59588;BME280;45412;54.472;18.464;2022-09-20T00:21:33;99389.43;;;9.35;99.26
59588;BME280;45412;54.472;18.464;2022-09-20T00:24:21;99384.98;;;9.28;99.59
59588;BME280;45412;54.472;18.464;2022-09-20T00:27:09;99389.17;;;9.23;99.36
59588;BME280;45412;54.472;18.464;2022-09-20T00:29:57;99393.74;;;9.14;99.33
59588;BME280;45412;54.472;18.464;2022-09-20T00:32:45;99397.96;;;9.09;99.31
59588;BME280;45412;54.472;18.464;2022-09-20T00:35:32;99402.78;;;9.03;99.49
59588;BME280;45412;54.472;18.464;2022-09-20T00:38:20;99406.09;;;8.98;99.37
59588;BME280;45412;54.472;18.464;2022-09-20T00:41:07;99405.66;;;8.92;99.78
59588;BME280;45412;54.472;18.464;2022-09-20T00:43:57;99411.20;;;8.87;99.86
59588;BME280;45412;54.472;18.464;2022-09-20T00:46:46;99415.29;;;8.82;99.97
59588;BME280;45412;54.472;18.464;2022-09-20T00:49:36;99415.58;;;8.79;99.94
59588;BME280;45412;54.472;18.464;2022-09-20T00:52:26;99420.21;;;8.74;99.94
59588;BME280;45412;54.472;18.464;2022-09-20T00:55:15;99416.15;;;8.67;99.99
59588;BME280;45412;54.472;18.464;2022-09-20T00:58:03;99419.34;;;8.62;100.00
59588;BME280;45412;54.472;18.464;2022-09-20T01:00:54;99415.90;;;8.57;100.00
59588;BME280;45412;54.472;18.464;2022-09-20T01:03:43;99417.91;;;8.51;100.00
59588;BME280;45412;54.472;18.464;2022-09-20T01:06:33;99418.03;;;8.48;100.00
59588;BME280;45412;54.472;18.464;2022-09-20T01:09:21;99419.73;;;8.44;100.00
59588;BME280;45412;54.472;18.464;2022-09-20T01:12:15;99424.28;;;8.40;100.00
59588;BME280;45412;54.472;18.464;2022-09-20T01:15:06;99428.48;;;8.36;100.00
59588;BME280;45412;54.472;18.464;2022-09-20T01:17:57;99430.64;;;8.33;100.00
59588;BME280;45412;54.472;18.464;2022-09-20T01:20:47;99431.18;;;8.31;100.00
59588;BME280;45412;54.472;18.464;2022-09-20T01:27:19;99434.01;;;8.28;100.00
59588;BME280;45412;54.472;18.464;2022-09-20T01:30:22;99434.83;;;8.25;100.00
59588;BME280;45412;54.472;18.464;2022-09-20T01:33:51;99430.98;;;8.22;100.00
59588;BME280;45412;54.472;18.464;2022-09-20T01:46:32;99444.57;;;8.15;100.00
59588;BME280;45412;54.472;18.464;2022-09-20T01:49:55;99441.84;;;8.14;100.00
59588;BME280;45412;54.472;18.464;2022-09-20T02:00:05;99441.02;;;8.15;100.00
59588;BME280;45412;54.472;18.464;2022-09-20T02:10:19;99439.27;;;8.19;100.00
59588;BME280;45412;54.472;18.464;2022-09-20T02:13:28;99436.82;;;8.19;100.00
59588;BME280;45412;54.472;18.464;2022-09-20T02:19:59;99434.73;;;8.14;100.00
59588;BME280;45412;54.472;18.464;2022-09-20T02:36:57;99451.04;;;8.00;100.00
59588;BME280;45412;54.472;18.464;2022-09-20T02:39:55;99450.30;;;7.95;100.00
59588;BME280;45412;54.472;18.464;2022-09-20T02:53:38;99453.06;;;7.90;100.00
59588;BME280;45412;54.472;18.464;2022-09-20T02:56:55;99451.42;;;7.88;100.00
59588;BME280;45412;54.472;18.464;2022-09-20T03:03:12;99456.32;;;7.87;100.00
59588;BME280;45412;54.472;18.464;2022-09-20T03:06:22;99457.47;;;7.85;100.00
59588;BME280;45412;54.472;18.464;2022-09-20T03:23:41;99465.58;;;7.81;100.00
59588;BME280;45412;54.472;18.464;2022-09-20T03:27:02;99468.61;;;7.80;100.00
59588;BME280;45412;54.472;18.464;2022-09-20T03:40:51;99471.35;;;7.67;100.00
59588;BME280;45412;54.472;18.464;2022-09-20T03:46:56;99485.76;;;7.61;100.00
59588;BME280;45412;54.472;18.464;2022-09-20T04:00:13;99498.47;;;7.49;100.00
59588;BME280;45412;54.472;18.464;2022-09-20T04:16:54;99501.09;;;7.32;100.00
59588;BME280;45412;54.472;18.464;2022-09-20T04:20:02;99509.44;;;7.31;100.00
59588;BME280;45412;54.472;18.464;2022-09-20T04:22:54;99508.65;;;7.30;100.00
59588;BME280;45412;54.472;18.464;2022-09-20T04:25:46;99506.73;;;7.30;100.00
59588;BME280;45412;54.472;18.464;2022-09-20T04:57:02;99529.63;;;7.79;100.00
59588;BME280;45412;54.472;18.464;2022-09-20T05:25:09;99549.54;;;8.06;100.00
59588;BME280;45412;54.472;18.464;2022-09-20T05:30:33;99554.77;;;8.32;100.00
59588;BME280;45412;54.472;18.464;2022-09-20T05:40:37;99567.06;;;8.82;100.00
59588;BME280;45412;54.472;18.464;2022-09-20T05:44:04;99568.52;;;9.02;100.00
59588;BME280;45412;54.472;18.464;2022-09-20T05:54:02;99573.41;;;9.56;100.00
59588;BME280;45412;54.472;18.464;2022-09-20T06:00:21;99574.72;;;9.79;98.90
59588;BME280;45412;54.472;18.464;2022-09-20T06:03:54;99572.30;;;9.81;98.57
59588;BME280;45412;54.472;18.464;2022-09-20T06:06:56;99583.40;;;9.79;98.01
59588;BME280;45412;54.472;18.464;2022-09-20T06:13:53;99579.57;;;9.89;97.60
59588;BME280;45412;54.472;18.464;2022-09-20T06:23:15;99588.50;;;9.97;96.89
59588;BME280;45412;54.472;18.464;2022-09-20T06:26:26;99595.69;;;10.07;97.13
59588;BME280;45412;54.472;18.464;2022-09-20T06:29:30;99598.80;;;10.27;96.57
59588;BME280;45412;54.472;18.464;2022-09-20T06:32:19;99603.42;;;10.80;95.43
59588;BME280;45412;54.472;18.464;2022-09-20T06:35:07;99601.36;;;11.94;92.06
59588;BME280;45412;54.472;18.464;2022-09-20T06:41:43;99602.83;;;13.15;84.94
59588;BME280;45412;54.472;18.464;2022-09-20T06:44:32;99604.77;;;13.89;81.90
59588;BME280;45412;54.472;18.464;2022-09-20T06:47:19;99602.45;;;14.59;80.26
59588;BME280;45412;54.472;18.464;2022-09-20T06:50:14;99603.35;;;14.50;79.06
59588;BME280;45412;54.472;18.464;2022-09-20T06:53:04;99607.20;;;14.43;78.41
59588;BME280;45412;54.472;18.464;2022-09-20T06:55:53;99618.11;;;14.40;78.95
59588;BME280;45412;54.472;18.464;2022-09-20T06:58:41;99630.09;;;14.22;79.18
59588;BME280;45412;54.472;18.464;2022-09-20T07:01:29;99633.25;;;13.89;79.28
59588;BME280;45412;54.472;18.464;2022-09-20T07:04:18;99633.70;;;13.72;79.54
59588;BME280;45412;54.472;18.464;2022-09-20T07:07:07;99632.35;;;13.61;80.02
59588;BME280;45412;54.472;18.464;2022-09-20T07:09:56;99631.36;;;13.60;80.77
59588;BME280;45412;54.472;18.464;2022-09-20T07:12:45;99628.80;;;14.04;79.33
59588;BME280;45412;54.472;18.464;2022-09-20T07:15:33;99634.46;;;14.10;77.98
59588;BME280;45412;54.472;18.464;2022-09-20T07:18:21;99634.98;;;14.50;76.94
59588;BME280;45412;54.472;18.464;2022-09-20T07:21:17;99634.66;;;14.44;76.04
59588;BME280;45412;54.472;18.464;2022-09-20T07:24:05;99639.61;;;14.36;75.64
59588;BME280;45412;54.472;18.464;2022-09-20T07:27:01;99645.40;;;14.37;77.28
59588;BME280;45412;54.472;18.464;2022-09-20T07:29:51;99638.89;;;14.48;77.03
59588;BME280;45412;54.472;18.464;2022-09-20T07:32:39;99638.65;;;14.57;76.70
59588;BME280;45412;54.472;18.464;2022-09-20T07:35:27;99638.77;;;14.74;76.49
59588;BME280;45412;54.472;18.464;2022-09-20T07:38:15;99641.77;;;15.03;75.04
59588;BME280;45412;54.472;18.464;2022-09-20T07:41:04;99646.94;;;16.88;72.32
59588;BME280;45412;54.472;18.464;2022-09-20T07:43:51;99637.88;;;19.35;64.39
59588;BME280;45412;54.472;18.464;2022-09-20T07:46:39;99634.48;;;20.53;57.54
59588;BME280;45412;54.472;18.464;2022-09-20T07:49:28;99640.27;;;20.46;56.59
59588;BME280;45412;54.472;18.464;2022-09-20T07:52:18;99640.82;;;20.72;54.54
59588;BME280;45412;54.472;18.464;2022-09-20T07:55:07;99646.63;;;20.57;54.18
59588;BME280;45412;54.472;18.464;2022-09-20T07:57:55;99643.29;;;21.76;51.83
59588;BME280;45412;54.472;18.464;2022-09-20T08:00:42;99644.08;;;22.89;48.08
59588;BME280;45412;54.472;18.464;2022-09-20T08:03:31;99640.94;;;24.04;46.57
59588;BME280;45412;54.472;18.464;2022-09-20T08:06:19;99641.29;;;24.76;43.32
59588;BME280;45412;54.472;18.464;2022-09-20T08:09:09;99642.56;;;26.01;40.14
59588;BME280;45412;54.472;18.464;2022-09-20T08:11:57;99647.02;;;25.59;39.04
59588;BME280;45412;54.472;18.464;2022-09-20T08:14:45;99646.92;;;24.36;39.77
59588;BME280;45412;54.472;18.464;2022-09-20T08:17:32;99654.66;;;24.05;41.31
59588;BME280;45412;54.472;18.464;2022-09-20T08:20:20;99652.45;;;25.27;40.35
59588;BME280;45412;54.472;18.464;2022-09-20T08:23:07;99653.69;;;26.21;38.00
59588;BME280;45412;54.472;18.464;2022-09-20T08:26:14;99659.81;;;27.00;36.09
59588;BME280;45412;54.472;18.464;2022-09-20T08:29:04;99653.18;;;27.40;35.08
59588;BME280;45412;54.472;18.464;2022-09-20T08:31:52;99655.16;;;27.74;34.78
59588;BME280;45412;54.472;18.464;2022-09-20T08:34:44;99659.80;;;27.55;34.61
59588;BME280;45412;54.472;18.464;2022-09-20T08:37:37;99656.77;;;27.94;34.15
59588;BME280;45412;54.472;18.464;2022-09-20T08:40:27;99663.95;;;27.60;34.52
59588;BME280;45412;54.472;18.464;2022-09-20T08:43:16;99666.19;;;27.94;34.03
59588;BME280;45412;54.472;18.464;2022-09-20T08:46:13;99667.12;;;28.36;33.02
59588;BME280;45412;54.472;18.464;2022-09-20T08:49:05;99667.45;;;28.61;32.60
59588;BME280;45412;54.472;18.464;2022-09-20T08:51:58;99665.55;;;29.58;31.37
59588;BME280;45412;54.472;18.464;2022-09-20T08:54:47;99667.40;;;29.61;30.95
59588;BME280;45412;54.472;18.464;2022-09-20T08:57:35;99670.06;;;28.10;31.66
59588;BME280;45412;54.472;18.464;2022-09-20T09:00:31;99671.81;;;26.64;33.72
59588;BME280;45412;54.472;18.464;2022-09-20T09:03:19;99669.59;;;27.16;34.09
59588;BME280;45412;54.472;18.464;2022-09-20T09:06:11;99665.90;;;27.59;33.75
59588;BME280;45412;54.472;18.464;2022-09-20T09:09:05;99664.48;;;28.03;33.58
59588;BME280;45412;54.472;18.464;2022-09-20T09:11:55;99663.86;;;28.69;31.31
59588;BME280;45412;54.472;18.464;2022-09-20T09:14:44;99663.43;;;29.42;31.09
59588;BME280;45412;54.472;18.464;2022-09-20T09:17:35;99664.73;;;30.28;29.25
59588;BME280;45412;54.472;18.464;2022-09-20T09:20:24;99666.71;;;30.70;27.89
59588;BME280;45412;54.472;18.464;2022-09-20T09:23:26;99668.65;;;31.08;27.55
59588;BME280;45412;54.472;18.464;2022-09-20T09:26:19;99666.79;;;30.31;28.61
59588;BME280;45412;54.472;18.464;2022-09-20T09:29:20;99672.23;;;30.73;28.09
59588;BME280;45412;54.472;18.464;2022-09-20T09:35:29;99688.90;;;28.98;29.82
59588;BME280;45412;54.472;18.464;2022-09-20T09:38:30;99694.73;;;26.90;33.65
59588;BME280;45412;54.472;18.464;2022-09-20T09:41:28;99690.89;;;24.58;37.62
59588;BME280;45412;54.472;18.464;2022-09-20T09:44:30;99695.36;;;22.86;40.71
59588;BME280;45412;54.472;18.464;2022-09-20T09:47:26;99693.56;;;21.41;44.23
59588;BME280;45412;54.472;18.464;2022-09-20T09:50:32;99700.23;;;20.39;46.63
59588;BME280;45412;54.472;18.464;2022-09-20T09:53:23;99702.48;;;19.51;48.92
59588;BME280;45412;54.472;18.464;2022-09-20T09:59:56;99719.60;;;17.91;53.56
59588;BME280;45412;54.472;18.464;2022-09-20T10:06:33;99715.79;;;16.51;58.53
59588;BME280;45412;54.472;18.464;2022-09-20T10:13:25;99722.34;;;15.69;62.06
59588;BME280;45412;54.472;18.464;2022-09-20T10:22:52;99730.08;;;15.42;65.23
59588;BME280;45412;54.472;18.464;2022-09-20T10:26:50;99735.70;;;15.75;66.00
59588;BME280;45412;54.472;18.464;2022-09-20T10:30:16;99731.80;;;15.87;66.26
59588;BME280;45412;54.472;18.464;2022-09-20T10:36:56;99732.64;;;17.01;63.76
59588;BME280;45412;54.472;18.464;2022-09-20T10:39:47;99724.69;;;19.55;57.47
59588;BME280;45412;54.472;18.464;2022-09-20T10:42:49;99723.95;;;21.89;51.22
59588;BME280;45412;54.472;18.464;2022-09-20T11:06:21;99742.80;;;26.52;35.41
59588;BME280;45412;54.472;18.464;2022-09-20T11:09:16;99744.91;;;25.28;37.88
59588;BME280;45412;54.472;18.464;2022-09-20T11:12:31;99743.08;;;24.88;38.17
59588;BME280;45412;54.472;18.464;2022-09-20T11:18:47;99750.42;;;23.61;39.51
59588;BME280;45412;54.472;18.464;2022-09-20T11:21:51;99752.70;;;23.16;40.28
59588;BME280;45412;54.472;18.464;2022-09-20T11:24:47;99752.61;;;22.36;41.58
59588;BME280;45412;54.472;18.464;2022-09-20T11:31:26;99760.83;;;20.40;45.36
59588;BME280;45412;54.472;18.464;2022-09-20T11:34:29;99764.50;;;19.70;48.69
59588;BME280;45412;54.472;18.464;2022-09-20T11:37:21;99769.11;;;19.58;50.49
59588;BME280;45412;54.472;18.464;2022-09-20T11:40:30;99766.88;;;19.90;48.56
59588;BME280;45412;54.472;18.464;2022-09-20T11:43:22;99781.12;;;19.89;48.44
59588;BME280;45412;54.472;18.464;2022-09-20T11:46:22;99795.38;;;19.23;47.86
59588;BME280;45412;54.472;18.464;2022-09-20T11:49:21;99806.41;;;18.42;51.59
59588;BME280;45412;54.472;18.464;2022-09-20T11:55:54;99811.84;;;17.09;56.38
59588;BME280;45412;54.472;18.464;2022-09-20T11:58:49;99820.70;;;16.67;58.30
59588;BME280;45412;54.472;18.464;2022-09-20T12:01:40;99820.81;;;16.34;60.74
59588;BME280;45412;54.472;18.464;2022-09-20T12:04:33;99823.98;;;16.02;61.65
59588;BME280;45412;54.472;18.464;2022-09-20T12:07:34;99825.80;;;15.77;62.90
59588;BME280;45412;54.472;18.464;2022-09-20T12:10:32;99821.99;;;15.60;64.77
59588;BME280;45412;54.472;18.464;2022-09-20T12:13:25;99828.25;;;15.47;65.90
59588;BME280;45412;54.472;18.464;2022-09-20T12:16:17;99824.98;;;15.48;66.87
59588;BME280;45412;54.472;18.464;2022-09-20T12:22:27;99831.59;;;15.32;67.22
59588;BME280;45412;54.472;18.464;2022-09-20T12:25:38;99829.21;;;15.15;68.94
59588;BME280;45412;54.472;18.464;2022-09-20T12:39:53;99841.04;;;14.64;72.16
59588;BME280;45412;54.472;18.464;2022-09-20T12:42:41;99841.17;;;14.85;72.56
59588;BME280;45412;54.472;18.464;2022-09-20T12:45:29;99841.69;;;15.08;72.78
59588;BME280;45412;54.472;18.464;2022-09-20T12:48:18;99844.47;;;15.28;72.57
59588;BME280;45412;54.472;18.464;2022-09-20T12:51:31;99845.08;;;15.49;71.75
59588;BME280;45412;54.472;18.464;2022-09-20T12:54:51;99844.58;;;15.68;69.71
59588;BME280;45412;54.472;18.464;2022-09-20T12:57:39;99847.94;;;15.77;68.24
59588;BME280;45412;54.472;18.464;2022-09-20T13:03:45;99847.54;;;15.85;63.85
59588;BME280;45412;54.472;18.464;2022-09-20T13:06:34;99853.17;;;15.73;63.66
59588;BME280;45412;54.472;18.464;2022-09-20T13:09:25;99858.48;;;15.65;63.54
59588;BME280;45412;54.472;18.464;2022-09-20T13:12:14;99858.45;;;15.51;64.24
59588;BME280;45412;54.472;18.464;2022-09-20T13:15:05;99854.81;;;15.32;63.72
59588;BME280;45412;54.472;18.464;2022-09-20T13:17:55;99857.55;;;15.23;63.84
59588;BME280;45412;54.472;18.464;2022-09-20T13:20:45;99863.09;;;15.12;64.56
59588;BME280;45412;54.472;18.464;2022-09-20T13:23:45;99865.91;;;15.12;65.28
59588;BME280;45412;54.472;18.464;2022-09-20T13:26:43;99869.50;;;15.20;65.14
59588;BME280;45412;54.472;18.464;2022-09-20T13:29:40;99870.67;;;15.17;65.45
59588;BME280;45412;54.472;18.464;2022-09-20T13:32:30;99875.14;;;15.22;66.18
59588;BME280;45412;54.472;18.464;2022-09-20T13:35:26;99875.06;;;15.35;66.47
59588;BME280;45412;54.472;18.464;2022-09-20T13:38:19;99875.80;;;15.49;65.06
59588;BME280;45412;54.472;18.464;2022-09-20T13:41:10;99872.69;;;15.71;64.82
59588;BME280;45412;54.472;18.464;2022-09-20T13:43:59;99865.92;;;15.96;63.89
59588;BME280;45412;54.472;18.464;2022-09-20T13:46:47;99864.89;;;16.06;62.71
59588;BME280;45412;54.472;18.464;2022-09-20T13:49:41;99865.67;;;16.15;62.59
59588;BME280;45412;54.472;18.464;2022-09-20T13:52:30;99867.76;;;16.30;62.00
59588;BME280;45412;54.472;18.464;2022-09-20T13:55:33;99863.12;;;16.45;61.63
59588;BME280;45412;54.472;18.464;2022-09-20T13:58:33;99866.90;;;16.65;60.79
59588;BME280;45412;54.472;18.464;2022-09-20T14:01:30;99868.89;;;16.80;60.04
59588;BME280;45412;54.472;18.464;2022-09-20T14:04:24;99876.27;;;16.93;59.59
59588;BME280;45412;54.472;18.464;2022-09-20T14:07:14;99879.91;;;17.01;59.61
59588;BME280;45412;54.472;18.464;2022-09-20T14:10:29;99881.98;;;17.15;59.72
59588;BME280;45412;54.472;18.464;2022-09-20T14:13:20;99889.13;;;17.28;60.28
59588;BME280;45412;54.472;18.464;2022-09-20T14:16:09;99898.91;;;17.03;62.50
59588;BME280;45412;54.472;18.464;2022-09-20T14:18:58;99903.22;;;16.59;64.58
59588;BME280;45412;54.472;18.464;2022-09-20T14:21:47;99908.71;;;16.07;64.57
59588;BME280;45412;54.472;18.464;2022-09-20T14:24:36;99911.00;;;15.42;65.58
59588;BME280;45412;54.472;18.464;2022-09-20T14:27:24;99911.59;;;14.77;65.26
59588;BME280;45412;54.472;18.464;2022-09-20T14:30:31;99913.95;;;14.33;66.74
59588;BME280;45412;54.472;18.464;2022-09-20T14:33:19;99912.96;;;13.93;69.42
59588;BME280;45412;54.472;18.464;2022-09-20T14:36:21;99919.15;;;13.64;71.00
59588;BME280;45412;54.472;18.464;2022-09-20T14:39:15;99923.30;;;13.37;71.97
59588;BME280;45412;54.472;18.464;2022-09-20T14:42:32;99929.16;;;13.17;73.51
59588;BME280;45412;54.472;18.464;2022-09-20T14:45:32;99929.33;;;12.99;75.77
59588;BME280;45412;54.472;18.464;2022-09-20T14:51:18;99934.04;;;12.60;78.87
59588;BME280;45412;54.472;18.464;2022-09-20T14:56:57;99938.95;;;12.42;81.40
59588;BME280;45412;54.472;18.464;2022-09-20T14:59:53;99943.49;;;12.33;82.41
59588;BME280;45412;54.472;18.464;2022-09-20T15:02:43;99945.98;;;12.21;83.61
59588;BME280;45412;54.472;18.464;2022-09-20T15:05:31;99950.88;;;12.11;83.68
59588;BME280;45412;54.472;18.464;2022-09-20T15:08:20;99949.32;;;12.04;83.99
59588;BME280;45412;54.472;18.464;2022-09-20T15:11:13;99953.19;;;12.03;84.86
59588;BME280;45412;54.472;18.464;2022-09-20T15:14:14;99958.10;;;11.98;85.26
59588;BME280;45412;54.472;18.464;2022-09-20T15:17:05;99964.80;;;11.94;85.92
59588;BME280;45412;54.472;18.464;2022-09-20T15:19:53;99967.30;;;11.89;86.20
59588;BME280;45412;54.472;18.464;2022-09-20T15:22:40;99968.82;;;11.84;86.96
59588;BME280;45412;54.472;18.464;2022-09-20T15:25:32;99973.95;;;11.78;86.90
59588;BME280;45412;54.472;18.464;2022-09-20T15:28:21;99974.54;;;11.71;87.55
59588;BME280;45412;54.472;18.464;2022-09-20T15:31:09;99978.30;;;11.64;87.81
59588;BME280;45412;54.472;18.464;2022-09-20T15:33:59;99979.94;;;11.59;88.87
59588;BME280;45412;54.472;18.464;2022-09-20T15:36:53;99982.46;;;11.54;88.93
59588;BME280;45412;54.472;18.464;2022-09-20T15:39:42;99980.35;;;11.52;89.38
59588;BME280;45412;54.472;18.464;2022-09-20T15:42:34;99978.34;;;11.48;89.51
59588;BME280;45412;54.472;18.464;2022-09-20T15:45:25;99980.45;;;11.44;89.82
59588;BME280;45412;54.472;18.464;2022-09-20T15:48:20;99984.38;;;11.42;90.44
59588;BME280;45412;54.472;18.464;2022-09-20T15:51:10;99986.17;;;11.40;90.33
59588;BME280;45412;54.472;18.464;2022-09-20T15:54:02;99987.29;;;11.37;90.89
59588;BME280;45412;54.472;18.464;2022-09-20T15:56:55;99990.97;;;11.35;90.68
59588;BME280;45412;54.472;18.464;2022-09-20T15:59:44;99993.23;;;11.36;90.95
59588;BME280;45412;54.472;18.464;2022-09-20T16:02:36;99996.31;;;11.35;91.09
59588;BME280;45412;54.472;18.464;2022-09-20T16:05:25;100000.96;;;11.35;91.52
59588;BME280;45412;54.472;18.464;2022-09-20T16:08:17;100003.64;;;11.30;91.19
59588;BME280;45412;54.472;18.464;2022-09-20T16:11:15;100007.20;;;11.26;91.44
59588;BME280;45412;54.472;18.464;2022-09-20T16:14:08;100009.77;;;11.20;92.17
59588;BME280;45412;54.472;18.464;2022-09-20T16:16:56;100008.16;;;11.14;92.35
59588;BME280;45412;54.472;18.464;2022-09-20T16:19:49;100006.62;;;11.06;92.83
59588;BME280;45412;54.472;18.464;2022-09-20T16:22:39;100013.13;;;11.01;92.99
59588;BME280;45412;54.472;18.464;2022-09-20T16:25:27;100014.83;;;10.93;93.76
59588;BME280;45412;54.472;18.464;2022-09-20T16:28:16;100011.13;;;10.83;94.69
59588;BME280;45412;54.472;18.464;2022-09-20T16:31:04;100009.41;;;10.74;94.84
59588;BME280;45412;54.472;18.464;2022-09-20T16:33:55;100010.38;;;10.66;94.95
59588;BME280;45412;54.472;18.464;2022-09-20T16:36:53;100010.90;;;10.59;95.29
59588;BME280;45412;54.472;18.464;2022-09-20T16:39:58;100016.80;;;10.52;95.62
59588;BME280;45412;54.472;18.464;2022-09-20T16:42:47;100022.58;;;10.46;96.32
59588;BME280;45412;54.472;18.464;2022-09-20T16:45:39;100033.09;;;10.38;96.62
59588;BME280;45412;54.472;18.464;2022-09-20T16:48:32;100032.82;;;10.32;97.83
59588;BME280;45412;54.472;18.464;2022-09-20T16:51:34;100035.34;;;10.29;98.08
59588;BME280;45412;54.472;18.464;2022-09-20T16:54:23;100039.73;;;10.25;98.14
59588;BME280;45412;54.472;18.464;2022-09-20T16:57:18;100037.52;;;10.19;98.44
59588;BME280;45412;54.472;18.464;2022-09-20T17:00:09;100049.55;;;10.15;98.94
59588;BME280;45412;54.472;18.464;2022-09-20T17:03:09;100060.06;;;10.14;99.56
59588;BME280;45412;54.472;18.464;2022-09-20T17:06:08;100065.15;;;10.17;99.87
59588;BME280;45412;54.472;18.464;2022-09-20T17:09:06;100064.37;;;10.20;99.88
59588;BME280;45412;54.472;18.464;2022-09-20T17:12:16;100065.95;;;10.20;99.51
59588;BME280;45412;54.472;18.464;2022-09-20T17:15:40;100068.59;;;10.23;98.98
59588;BME280;45412;54.472;18.464;2022-09-20T17:18:30;100069.98;;;10.24;98.46
59588;BME280;45412;54.472;18.464;2022-09-20T17:21:21;100070.77;;;10.22;97.77
59588;BME280;45412;54.472;18.464;2022-09-20T17:24:13;100069.88;;;10.20;97.78
59588;BME280;45412;54.472;18.464;2022-09-20T17:27:02;100074.67;;;10.16;97.35
59588;BME280;45412;54.472;18.464;2022-09-20T17:29:52;100077.68;;;10.13;97.32
59588;BME280;45412;54.472;18.464;2022-09-20T17:32:43;100072.83;;;10.12;97.30
59588;BME280;45412;54.472;18.464;2022-09-20T17:35:34;100072.48;;;10.07;96.68
59588;BME280;45412;54.472;18.464;2022-09-20T17:38:22;100070.37;;;10.00;96.89
59588;BME280;45412;54.472;18.464;2022-09-20T17:41:15;100074.59;;;9.95;97.23
59588;BME280;45412;54.472;18.464;2022-09-20T17:44:03;100081.33;;;9.91;97.26
59588;BME280;45412;54.472;18.464;2022-09-20T17:46:56;100083.39;;;9.86;97.45
59588;BME280;45412;54.472;18.464;2022-09-20T17:49:45;100090.95;;;9.85;97.69
59588;BME280;45412;54.472;18.464;2022-09-20T17:52:33;100099.91;;;9.86;98.84
59588;BME280;45412;54.472;18.464;2022-09-20T17:55:21;100098.90;;;9.88;99.57
59588;BME280;45412;54.472;18.464;2022-09-20T17:58:09;100105.05;;;9.91;99.22
59588;BME280;45412;54.472;18.464;2022-09-20T18:01:10;100107.69;;;9.96;99.00
59588;BME280;45412;54.472;18.464;2022-09-20T18:04:16;100108.98;;;10.00;98.77
59588;BME280;45412;54.472;18.464;2022-09-20T18:07:50;100117.52;;;10.04;98.94
59588;BME280;45412;54.472;18.464;2022-09-20T18:10:57;100119.66;;;10.09;99.10
59588;BME280;45412;54.472;18.464;2022-09-20T18:13:46;100126.30;;;10.13;99.59
59588;BME280;45412;54.472;18.464;2022-09-20T18:16:34;100124.39;;;10.15;99.64
59588;BME280;45412;54.472;18.464;2022-09-20T18:19:23;100128.67;;;10.19;99.78
59588;BME280;45412;54.472;18.464;2022-09-20T18:22:11;100132.10;;;10.25;99.63
59588;BME280;45412;54.472;18.464;2022-09-20T18:24:59;100132.73;;;10.31;99.44
59588;BME280;45412;54.472;18.464;2022-09-20T18:27:49;100130.04;;;10.34;99.26
59588;BME280;45412;54.472;18.464;2022-09-20T18:30:37;100132.38;;;10.36;99.13
59588;BME280;45412;54.472;18.464;2022-09-20T18:33:28;100139.38;;;10.40;99.07
59588;BME280;45412;54.472;18.464;2022-09-20T18:36:19;100138.84;;;10.43;99.47
59588;BME280;45412;54.472;18.464;2022-09-20T18:39:08;100140.21;;;10.45;99.38
59588;BME280;45412;54.472;18.464;2022-09-20T18:41:56;100143.68;;;10.46;99.16
59588;BME280;45412;54.472;18.464;2022-09-20T18:44:44;100148.84;;;10.48;99.44
59588;BME280;45412;54.472;18.464;2022-09-20T18:47:33;100149.02;;;10.51;99.19
59588;BME280;45412;54.472;18.464;2022-09-20T18:50:21;100147.34;;;10.52;99.07
59588;BME280;45412;54.472;18.464;2022-09-20T18:53:10;100149.77;;;10.52;99.32
59588;BME280;45412;54.472;18.464;2022-09-20T18:59:18;100153.98;;;10.53;99.36
59588;BME280;45412;54.472;18.464;2022-09-20T19:05:54;100167.30;;;10.50;98.83
59588;BME280;45412;54.472;18.464;2022-09-20T19:09:27;100170.29;;;10.48;98.82
59588;BME280;45412;54.472;18.464;2022-09-20T19:12:56;100174.73;;;10.47;98.73
59588;BME280;45412;54.472;18.464;2022-09-20T19:16:19;100176.11;;;10.47;98.67
59588;BME280;45412;54.472;18.464;2022-09-20T19:19:22;100174.18;;;10.46;98.50
59588;BME280;45412;54.472;18.464;2022-09-20T19:22:33;100176.21;;;10.45;98.65
59588;BME280;45412;54.472;18.464;2022-09-20T19:25:39;100183.45;;;10.46;98.75
59588;BME280;45412;54.472;18.464;2022-09-20T19:28:30;100185.90;;;10.46;98.46
59588;BME280;45412;54.472;18.464;2022-09-20T19:31:48;100184.42;;;10.47;98.64
59588;BME280;45412;54.472;18.464;2022-09-20T19:34:37;100180.79;;;10.46;98.61
59588;BME280;45412;54.472;18.464;2022-09-20T19:50:52;100194.55;;;10.37;99.35
59588;BME280;45412;54.472;18.464;2022-09-20T19:53:41;100197.59;;;10.39;99.34
59588;BME280;45412;54.472;18.464;2022-09-20T19:56:58;100199.35;;;10.42;99.49
59588;BME280;45412;54.472;18.464;2022-09-20T19:59:52;100199.71;;;10.42;99.54
59588;BME280;45412;54.472;18.464;2022-09-20T20:02:44;100203.18;;;10.43;99.50
59588;BME280;45412;54.472;18.464;2022-09-20T20:05:34;100208.21;;;10.45;99.07
59588;BME280;45412;54.472;18.464;2022-09-20T20:09:00;100207.22;;;10.46;98.95
59588;BME280;45412;54.472;18.464;2022-09-20T20:12:02;100207.59;;;10.46;99.12